createdAt,value
2022-08-01T00:01:02.178Z,8.6
2022-08-01T00:06:01.736Z,8.8
2022-08-01T00:11:03.304Z,9.4
2022-08-01T00:16:02.214Z,10.0
2022-08-01T00:21:01.729Z,10.1
2022-08-01T00:26:01.731Z,10.2
2022-08-01T00:31:01.753Z,10.7
2022-08-01T00:36:01.737Z,10.0
2022-08-01T00:41:02.014Z,9.9
2022-08-01T00:51:03.479Z,10.2
2022-08-01T00:56:01.720Z,9.9
2022-08-01T01:01:12.895Z,10.0
2022-08-01T01:06:01.736Z,10.4
2022-08-01T01:11:01.730Z,10.4
2022-08-01T01:16:01.739Z,10.4
2022-08-01T01:21:02.013Z,10.4
2022-08-01T01:26:03.424Z,10.6
2022-08-01T01:31:05.603Z,10.2
2022-08-01T01:36:01.705Z,10.4
2022-08-01T01:41:01.726Z,10.2
2022-08-01T01:46:03.618Z,10.5
2022-08-01T01:56:01.709Z,11.0
2022-08-01T02:01:03.968Z,10.8
2022-08-01T02:06:01.685Z,10.9
2022-08-01T02:11:03.322Z,12.0
2022-08-01T02:16:01.637Z,11.8
2022-08-01T02:21:04.011Z,11.6
2022-08-01T02:26:14.662Z,11.4
2022-08-01T02:41:01.717Z,10.1
2022-08-01T02:46:01.761Z,10.7
2022-08-01T02:51:05.366Z,11.4
2022-08-01T02:56:01.937Z,11.0
2022-08-01T03:01:03.774Z,11.1
2022-08-01T03:06:01.737Z,11.4
2022-08-01T03:11:01.721Z,11.0
2022-08-01T03:16:01.726Z,10.8
2022-08-01T03:21:02.821Z,10.8
2022-08-01T03:31:01.728Z,11.0
2022-08-01T03:36:02.178Z,11.0
2022-08-01T03:41:01.718Z,11.0
2022-08-01T03:51:01.747Z,11.1
2022-08-01T03:56:01.933Z,10.8
2022-08-01T04:01:01.988Z,10.8
2022-08-01T04:06:02.228Z,10.6
2022-08-01T04:11:01.733Z,10.1
2022-08-01T04:21:01.749Z,10.8
2022-08-01T04:26:01.773Z,10.8
2022-08-01T04:31:02.737Z,10.6
2022-08-01T04:36:05.500Z,10.6
2022-08-01T04:41:10.104Z,10.5
2022-08-01T04:46:03.315Z,10.2
2022-08-01T04:51:01.714Z,10.0
2022-08-01T04:56:01.725Z,10.0
2022-08-01T05:06:01.711Z,10.1
2022-08-01T05:11:01.721Z,10.2
2022-08-01T05:21:01.713Z,10.0
2022-08-01T05:26:02.049Z,10.0
2022-08-01T05:31:01.707Z,9.4
2022-08-01T05:36:01.734Z,8.6
2022-08-01T05:41:02.163Z,8.0
2022-08-01T05:46:02.219Z,7.4
2022-08-01T05:51:01.699Z,7.4
2022-08-01T05:56:01.756Z,6.9
2022-08-01T06:01:02.010Z,6.8
2022-08-01T06:06:03.091Z,7.0
2022-08-01T06:11:01.818Z,6.8
2022-08-01T06:16:01.758Z,5.9
2022-08-01T06:21:01.752Z,5.5
2022-08-01T06:26:02.293Z,5.0
2022-08-01T06:31:02.246Z,4.4
2022-08-01T06:41:01.724Z,4.8
2022-08-01T06:46:01.721Z,5.3
2022-08-01T06:51:01.745Z,5.8
2022-08-01T06:56:01.730Z,6.5
2022-08-01T07:01:02.079Z,6.5
2022-08-01T07:11:01.734Z,6.5
2022-08-01T07:16:03.659Z,6.9
2022-08-01T07:21:05.201Z,6.7
2022-08-01T07:31:01.726Z,7.1
2022-08-01T07:36:02.967Z,7.2
2022-08-01T07:41:02.169Z,6.9
2022-08-01T07:46:01.752Z,6.5
2022-08-01T07:51:01.823Z,6.0
2022-08-01T07:56:02.328Z,6.0
2022-08-01T08:01:01.768Z,5.4
2022-08-01T08:06:01.775Z,5.0
2022-08-01T08:16:02.005Z,4.7
2022-08-01T08:21:07.602Z,4.1
2022-08-01T08:26:01.774Z,4.0
2022-08-01T08:31:02.805Z,3.9
2022-08-01T08:36:02.829Z,3.7
2022-08-01T08:41:01.657Z,3.6
2022-08-01T08:56:02.351Z,3.6
2022-08-01T09:01:02.332Z,3.5
2022-08-01T09:06:01.777Z,3.4
2022-08-01T09:11:01.194Z,3.3
2022-08-01T09:21:11.311Z,3.6
2022-08-01T09:26:01.751Z,4.1
2022-08-01T09:31:01.670Z,4.4
2022-08-01T09:41:02.705Z,4.6
2022-08-01T09:46:01.757Z,4.4
2022-08-01T09:51:10.153Z,4.2
2022-08-01T09:56:01.772Z,4.6
2022-08-01T10:06:25.403Z,4.8
2022-08-01T10:11:02.432Z,5.0
2022-08-01T10:16:02.158Z,4.9
2022-08-01T10:21:01.666Z,4.3
2022-08-01T10:26:04.996Z,3.8
2022-08-01T10:31:17.153Z,4.4
2022-08-01T10:36:02.682Z,4.1
2022-08-01T10:41:09.221Z,3.6
2022-08-01T10:46:02.879Z,3.0
2022-08-01T10:51:01.762Z,2.6
2022-08-01T10:57:02.590Z,1.2
2022-08-01T11:02:04.088Z,0.4
2022-08-01T11:07:02.696Z,0.0
2022-08-01T11:12:01.748Z,0.0
2022-08-01T11:27:24.020Z,0.0
2022-08-01T11:37:18.870Z,0.0
2022-08-01T11:52:04.471Z,0.1
2022-08-01T12:02:03.455Z,0.1
2022-08-01T12:12:01.989Z,0.2
2022-08-01T12:17:01.911Z,0.4
2022-08-01T12:27:01.757Z,0.7
2022-08-01T12:32:01.410Z,0.7
2022-08-01T12:37:01.648Z,0.6
2022-08-01T12:42:05.493Z,0.3
2022-08-01T12:47:08.701Z,0.3
2022-08-01T12:52:01.756Z,0.2
2022-08-01T12:58:01.756Z,0.4
2022-08-01T13:08:09.866Z,0.3
2022-08-01T13:13:01.745Z,0.3
2022-08-01T13:18:17.890Z,0.2
2022-08-01T13:33:01.670Z,0.0
2022-08-01T13:43:01.770Z,0.1
2022-08-01T13:53:02.751Z,0.1
2022-08-01T13:58:01.802Z,0.1
2022-08-01T14:03:01.751Z,0.2
2022-08-01T14:08:04.871Z,0.3
2022-08-01T14:13:02.275Z,0.7
2022-08-01T14:18:01.739Z,0.9
2022-08-01T14:23:01.750Z,1.0
2022-08-01T14:38:03.737Z,0.6
2022-08-01T14:48:01.730Z,0.4
2022-08-01T14:53:01.735Z,0.2
2022-08-01T14:58:01.715Z,0.2
2022-08-01T15:03:01.731Z,0.2
2022-08-01T15:08:01.796Z,0.2
2022-08-01T15:18:01.719Z,0.2
2022-08-01T15:23:02.512Z,0.4
2022-08-01T15:33:02.246Z,0.6
2022-08-01T15:38:01.733Z,1.2
2022-08-01T15:43:02.569Z,1.4
2022-08-01T15:48:01.723Z,1.2
2022-08-01T15:53:01.834Z,1.2
2022-08-01T15:58:02.388Z,1.0
2022-08-01T16:03:01.751Z,0.4
2022-08-01T16:13:08.351Z,0.3
2022-08-01T16:18:02.576Z,0.3
2022-08-01T16:38:01.725Z,0.0
2022-08-01T16:43:02.051Z,0.0
2022-08-01T16:48:02.099Z,0.0
2022-08-01T17:18:01.721Z,0.0
2022-08-01T17:48:01.590Z,0.0
2022-08-01T18:03:08.752Z,0.1
2022-08-01T18:18:01.833Z,0.2
2022-08-01T18:33:01.980Z,0.3
2022-08-01T18:38:05.003Z,0.2
2022-08-01T18:43:01.713Z,0.1
2022-08-01T18:53:01.786Z,0.3
2022-08-01T18:58:02.558Z,0.4
2022-08-01T19:03:01.720Z,0.4
2022-08-01T19:08:08.963Z,0.3
2022-08-01T19:13:01.762Z,0.3
2022-08-01T19:18:01.742Z,0.2
2022-08-01T19:23:01.787Z,0.1
2022-08-01T19:28:01.754Z,0.2
2022-08-01T19:33:01.723Z,0.3
2022-08-01T19:43:01.724Z,0.4
2022-08-01T19:48:01.726Z,0.4
2022-08-01T19:53:02.635Z,0.4
2022-08-01T20:03:01.974Z,0.2
2022-08-01T20:13:01.769Z,0.2
2022-08-01T20:23:03.075Z,0.3
2022-08-01T20:38:07.461Z,0.4
2022-08-01T20:43:01.741Z,0.7
2022-08-01T20:48:01.727Z,0.6
2022-08-01T20:58:03.717Z,0.7
2022-08-01T21:03:01.736Z,0.8
2022-08-01T21:08:06.840Z,0.6
2022-08-01T21:13:03.670Z,1.0
2022-08-01T21:18:06.119Z,1.2
2022-08-01T21:28:03.025Z,0.9
2022-08-01T21:38:01.745Z,0.6
2022-08-01T21:43:03.266Z,0.8
2022-08-01T21:48:04.418Z,0.8
2022-08-01T21:53:05.345Z,1.0
2022-08-01T21:58:01.612Z,1.0
2022-08-01T22:03:19.150Z,1.4
2022-08-01T22:08:01.726Z,1.2
2022-08-01T22:13:01.802Z,1.1
2022-08-01T22:18:01.769Z,1.0
2022-08-01T22:23:02.320Z,1.0
2022-08-01T22:33:18.041Z,1.3
2022-08-01T22:38:04.797Z,1.2
2022-08-01T22:43:01.742Z,1.0
2022-08-01T22:48:09.081Z,1.2
2022-08-01T22:53:06.036Z,1.1
2022-08-01T23:03:01.804Z,1.6
2022-08-01T23:08:01.726Z,1.8
2022-08-01T23:13:02.837Z,1.5
2022-08-01T23:18:01.825Z,1.8
2022-08-01T23:28:06.607Z,1.3
2022-08-01T23:33:01.734Z,1.6
2022-08-01T23:38:03.522Z,1.9
2022-08-01T23:43:01.779Z,1.9
2022-08-01T23:53:01.767Z,2.1
2022-08-01T23:58:01.718Z,2.0
